Terminal Aerodrome Forecast
Issued by NWS Charleston, WV

Home | Current Version | Previous Version | Text Only | Print | Product List | Glossary On
Versions: 1 2 3 4 5 6 7 8 9 10 11 12 13 14 15 16 17 18 19 20 21 22 23 24 25 26 27 28 29
000
FTUS41 KRLX 200318 AAA
TAFEKN
TAF AMD
KEKN 200318Z 2003/2024 00000KT 3SM BR BKN250
      TEMPO 2003/2007 1/2SM FG SCT001
     FM200800 15004KT P6SM OVC050
     FM201100 16005KT 5SM -RA SCT025 OVC050
     FM201600 19007KT P6SM OVC025
     FM202100 24006KT P6SM BKN025=

USA.gov is the U.S. government's official web portal to all federal, state and local government web resources and services.